sensor_id;sensor_type;location;lat;lon;timestamp;temperature;humidity
11934;DHT22;6026;48.784;9.198;2023-05-29T00:01:20;16.50;99.90
11934;DHT22;6026;48.784;9.198;2023-05-29T00:03:46;16.50;99.90
11934;DHT22;6026;48.784;9.198;2023-05-29T00:06:12;16.50;99.90
11934;DHT22;6026;48.784;9.198;2023-05-29T00:08:38;16.50;99.90
11934;DHT22;6026;48.784;9.198;2023-05-29T00:11:04;16.40;99.90
11934;DHT22;6026;48.784;9.198;2023-05-29T00:13:30;16.40;99.90
11934;DHT22;6026;48.784;9.198;2023-05-29T00:15:55;16.40;99.90
11934;DHT22;6026;48.784;9.198;2023-05-29T00:18:21;16.40;99.90
11934;DHT22;6026;48.784;9.198;2023-05-29T00:20:47;16.30;99.90
11934;DHT22;6026;48.784;9.198;2023-05-29T00:23:13;16.30;99.90
11934;DHT22;6026;48.784;9.198;2023-05-29T00:25:38;16.20;99.90
11934;DHT22;6026;48.784;9.198;2023-05-29T00:28:06;16.10;99.90
11934;DHT22;6026;48.784;9.198;2023-05-29T00:30:32;16.10;99.90
11934;DHT22;6026;48.784;9.198;2023-05-29T00:32:58;16.10;99.90
11934;DHT22;6026;48.784;9.198;2023-05-29T00:35:24;16.00;99.90
11934;DHT22;6026;48.784;9.198;2023-05-29T00:37:49;16.00;99.90
11934;DHT22;6026;48.784;9.198;2023-05-29T00:40:15;16.00;99.90
11934;DHT22;6026;48.784;9.198;2023-05-29T00:42:41;15.90;99.90
11934;DHT22;6026;48.784;9.198;2023-05-29T00:45:07;15.90;99.90
11934;DHT22;6026;48.784;9.198;2023-05-29T00:47:33;15.80;99.90
11934;DHT22;6026;48.784;9.198;2023-05-29T00:49:59;15.80;99.90
11934;DHT22;6026;48.784;9.198;2023-05-29T00:52:25;15.80;99.90
11934;DHT22;6026;48.784;9.198;2023-05-29T00:54:51;15.80;99.90
11934;DHT22;6026;48.784;9.198;2023-05-29T00:57:18;15.80;99.90
11934;DHT22;6026;48.784;9.198;2023-05-29T00:59:45;15.70;99.90
11934;DHT22;6026;48.784;9.198;2023-05-29T01:02:12;15.80;99.90
11934;DHT22;6026;48.784;9.198;2023-05-29T01:04:39;15.70;99.90
11934;DHT22;6026;48.784;9.198;2023-05-29T01:07:05;15.70;99.90
11934;DHT22;6026;48.784;9.198;2023-05-29T01:09:32;15.70;99.90
11934;DHT22;6026;48.784;9.198;2023-05-29T01:14:29;15.60;99.90
11934;DHT22;6026;48.784;9.198;2023-05-29T01:17:15;15.60;99.90
11934;DHT22;6026;48.784;9.198;2023-05-29T01:19:59;15.60;99.90
11934;DHT22;6026;48.784;9.198;2023-05-29T01:25:24;15.50;99.90
11934;DHT22;6026;48.784;9.198;2023-05-29T01:27:55;15.50;99.90
11934;DHT22;6026;48.784;9.198;2023-05-29T01:30:23;15.50;99.90
11934;DHT22;6026;48.784;9.198;2023-05-29T01:32:50;15.50;99.90
11934;DHT22;6026;48.784;9.198;2023-05-29T01:35:16;15.40;99.90
11934;DHT22;6026;48.784;9.198;2023-05-29T01:37:42;15.40;99.90
11934;DHT22;6026;48.784;9.198;2023-05-29T01:40:08;15.40;99.90
11934;DHT22;6026;48.784;9.198;2023-05-29T01:42:34;15.40;99.90
11934;DHT22;6026;48.784;9.198;2023-05-29T01:45:00;15.30;99.90
11934;DHT22;6026;48.784;9.198;2023-05-29T01:47:27;15.20;99.90
11934;DHT22;6026;48.784;9.198;2023-05-29T01:49:53;15.20;99.90
11934;DHT22;6026;48.784;9.198;2023-05-29T01:52:20;15.20;99.90
11934;DHT22;6026;48.784;9.198;2023-05-29T01:54:45;15.20;99.90
11934;DHT22;6026;48.784;9.198;2023-05-29T01:57:11;15.10;99.90
11934;DHT22;6026;48.784;9.198;2023-05-29T01:59:38;15.10;99.90
11934;DHT22;6026;48.784;9.198;2023-05-29T02:02:10;15.10;99.90
11934;DHT22;6026;48.784;9.198;2023-05-29T02:04:37;15.00;99.90
11934;DHT22;6026;48.784;9.198;2023-05-29T02:07:03;15.00;99.90
11934;DHT22;6026;48.784;9.198;2023-05-29T02:09:29;15.00;99.90
11934;DHT22;6026;48.784;9.198;2023-05-29T02:11:54;14.90;99.90
11934;DHT22;6026;48.784;9.198;2023-05-29T02:14:20;14.80;99.90
11934;DHT22;6026;48.784;9.198;2023-05-29T02:16:46;14.80;99.90
11934;DHT22;6026;48.784;9.198;2023-05-29T02:19:11;14.80;99.90
11934;DHT22;6026;48.784;9.198;2023-05-29T02:21:40;14.80;99.90
11934;DHT22;6026;48.784;9.198;2023-05-29T02:24:08;14.70;99.90
11934;DHT22;6026;48.784;9.198;2023-05-29T02:26:34;14.70;99.90
11934;DHT22;6026;48.784;9.198;2023-05-29T02:29:02;14.70;99.90
11934;DHT22;6026;48.784;9.198;2023-05-29T02:31:28;14.60;99.90
11934;DHT22;6026;48.784;9.198;2023-05-29T02:33:53;14.60;99.90
11934;DHT22;6026;48.784;9.198;2023-05-29T02:36:19;14.60;99.90
11934;DHT22;6026;48.784;9.198;2023-05-29T02:38:44;14.60;99.90
11934;DHT22;6026;48.784;9.198;2023-05-29T02:41:10;14.50;99.90
11934;DHT22;6026;48.784;9.198;2023-05-29T02:43:35;14.50;99.90
11934;DHT22;6026;48.784;9.198;2023-05-29T02:46:01;14.50;99.90
11934;DHT22;6026;48.784;9.198;2023-05-29T02:48:26;14.50;99.90
11934;DHT22;6026;48.784;9.198;2023-05-29T02:50:52;14.40;99.90
11934;DHT22;6026;48.784;9.198;2023-05-29T02:53:18;14.40;99.90
11934;DHT22;6026;48.784;9.198;2023-05-29T02:55:44;14.40;99.90
11934;DHT22;6026;48.784;9.198;2023-05-29T02:58:10;14.40;99.90
11934;DHT22;6026;48.784;9.198;2023-05-29T03:00:37;14.40;99.90
11934;DHT22;6026;48.784;9.198;2023-05-29T03:03:02;14.30;99.90
11934;DHT22;6026;48.784;9.198;2023-05-29T03:05:28;14.30;99.90
11934;DHT22;6026;48.784;9.198;2023-05-29T03:07:54;14.30;99.90
11934;DHT22;6026;48.784;9.198;2023-05-29T03:10:19;14.30;99.90
11934;DHT22;6026;48.784;9.198;2023-05-29T03:12:46;14.20;99.90
11934;DHT22;6026;48.784;9.198;2023-05-29T03:15:12;14.20;99.90
11934;DHT22;6026;48.784;9.198;2023-05-29T03:17:37;14.20;99.90
11934;DHT22;6026;48.784;9.198;2023-05-29T03:20:04;14.10;99.90
11934;DHT22;6026;48.784;9.198;2023-05-29T03:22:36;14.10;99.90
11934;DHT22;6026;48.784;9.198;2023-05-29T03:25:02;14.00;99.90
11934;DHT22;6026;48.784;9.198;2023-05-29T03:27:28;14.00;99.90
11934;DHT22;6026;48.784;9.198;2023-05-29T03:29:55;14.00;99.90
11934;DHT22;6026;48.784;9.198;2023-05-29T03:32:20;13.90;99.90
11934;DHT22;6026;48.784;9.198;2023-05-29T03:34:46;13.90;99.90
11934;DHT22;6026;48.784;9.198;2023-05-29T03:37:13;13.90;99.90
11934;DHT22;6026;48.784;9.198;2023-05-29T03:39:38;13.90;99.90
11934;DHT22;6026;48.784;9.198;2023-05-29T03:42:04;13.80;99.90
11934;DHT22;6026;48.784;9.198;2023-05-29T03:44:30;13.80;99.90
11934;DHT22;6026;48.784;9.198;2023-05-29T03:46:55;13.80;99.90
11934;DHT22;6026;48.784;9.198;2023-05-29T03:49:21;13.80;99.90
11934;DHT22;6026;48.784;9.198;2023-05-29T03:51:46;13.70;99.90
11934;DHT22;6026;48.784;9.198;2023-05-29T03:54:12;13.70;99.90
11934;DHT22;6026;48.784;9.198;2023-05-29T03:56:37;13.70;99.90
11934;DHT22;6026;48.784;9.198;2023-05-29T03:59:03;13.70;99.90
11934;DHT22;6026;48.784;9.198;2023-05-29T04:01:29;13.70;99.90
11934;DHT22;6026;48.784;9.198;2023-05-29T04:03:54;13.70;99.90
11934;DHT22;6026;48.784;9.198;2023-05-29T04:06:21;13.60;99.90
11934;DHT22;6026;48.784;9.198;2023-05-29T04:08:48;13.60;99.90
11934;DHT22;6026;48.784;9.198;2023-05-29T04:11:14;13.70;99.90
11934;DHT22;6026;48.784;9.198;2023-05-29T04:13:39;13.70;99.90
11934;DHT22;6026;48.784;9.198;2023-05-29T04:16:06;13.70;99.90
11934;DHT22;6026;48.784;9.198;2023-05-29T04:18:31;13.60;99.90
11934;DHT22;6026;48.784;9.198;2023-05-29T04:20:57;13.70;99.90
11934;DHT22;6026;48.784;9.198;2023-05-29T04:23:23;13.70;99.90
11934;DHT22;6026;48.784;9.198;2023-05-29T04:25:48;13.70;99.90
11934;DHT22;6026;48.784;9.198;2023-05-29T04:28:16;13.70;99.90
11934;DHT22;6026;48.784;9.198;2023-05-29T04:30:42;13.80;99.90
11934;DHT22;6026;48.784;9.198;2023-05-29T04:33:08;13.80;99.90
11934;DHT22;6026;48.784;9.198;2023-05-29T04:35:35;13.80;99.90
11934;DHT22;6026;48.784;9.198;2023-05-29T04:38:00;13.80;99.90
11934;DHT22;6026;48.784;9.198;2023-05-29T04:40:26;13.80;99.90
11934;DHT22;6026;48.784;9.198;2023-05-29T04:42:52;13.90;99.90
11934;DHT22;6026;48.784;9.198;2023-05-29T04:45:20;13.90;99.90
11934;DHT22;6026;48.784;9.198;2023-05-29T04:47:46;14.00;99.90
11934;DHT22;6026;48.784;9.198;2023-05-29T04:50:12;13.90;99.90
11934;DHT22;6026;48.784;9.198;2023-05-29T04:52:38;14.00;99.90
11934;DHT22;6026;48.784;9.198;2023-05-29T04:55:05;14.00;99.90
11934;DHT22;6026;48.784;9.198;2023-05-29T04:57:31;14.10;99.90
11934;DHT22;6026;48.784;9.198;2023-05-29T04:59:56;14.10;99.90
11934;DHT22;6026;48.784;9.198;2023-05-29T05:02:22;14.20;99.90
11934;DHT22;6026;48.784;9.198;2023-05-29T05:04:48;14.20;99.90
11934;DHT22;6026;48.784;9.198;2023-05-29T05:07:13;14.30;99.90
11934;DHT22;6026;48.784;9.198;2023-05-29T05:09:41;14.30;99.90
11934;DHT22;6026;48.784;9.198;2023-05-29T05:12:07;14.30;99.90
11934;DHT22;6026;48.784;9.198;2023-05-29T05:14:33;14.30;99.90
11934;DHT22;6026;48.784;9.198;2023-05-29T05:16:58;14.40;99.90
11934;DHT22;6026;48.784;9.198;2023-05-29T05:19:24;14.40;99.90
11934;DHT22;6026;48.784;9.198;2023-05-29T05:21:49;14.40;99.90
11934;DHT22;6026;48.784;9.198;2023-05-29T05:24:15;14.50;99.90
11934;DHT22;6026;48.784;9.198;2023-05-29T05:26:41;14.60;99.90
11934;DHT22;6026;48.784;9.198;2023-05-29T05:29:06;14.60;99.90
11934;DHT22;6026;48.784;9.198;2023-05-29T05:31:32;14.60;99.90
11934;DHT22;6026;48.784;9.198;2023-05-29T05:33:57;14.70;99.90
11934;DHT22;6026;48.784;9.198;2023-05-29T05:36:23;14.80;99.90
11934;DHT22;6026;48.784;9.198;2023-05-29T05:38:48;14.80;99.90
11934;DHT22;6026;48.784;9.198;2023-05-29T05:41:14;14.80;99.90
11934;DHT22;6026;48.784;9.198;2023-05-29T05:43:40;14.90;99.90
11934;DHT22;6026;48.784;9.198;2023-05-29T05:46:05;15.00;99.90
11934;DHT22;6026;48.784;9.198;2023-05-29T05:48:31;15.10;99.90
11934;DHT22;6026;48.784;9.198;2023-05-29T05:50:56;15.20;99.90
11934;DHT22;6026;48.784;9.198;2023-05-29T05:53:22;15.30;99.90
11934;DHT22;6026;48.784;9.198;2023-05-29T05:55:48;15.30;99.90
11934;DHT22;6026;48.784;9.198;2023-05-29T05:58:13;15.40;99.90
11934;DHT22;6026;48.784;9.198;2023-05-29T06:00:39;15.50;99.90
11934;DHT22;6026;48.784;9.198;2023-05-29T06:03:05;15.60;99.90
11934;DHT22;6026;48.784;9.198;2023-05-29T06:05:31;15.70;99.90
11934;DHT22;6026;48.784;9.198;2023-05-29T06:07:56;15.80;99.90
11934;DHT22;6026;48.784;9.198;2023-05-29T06:10:22;15.90;99.90
11934;DHT22;6026;48.784;9.198;2023-05-29T06:12:48;16.00;99.90
11934;DHT22;6026;48.784;9.198;2023-05-29T06:15:14;16.10;99.90
11934;DHT22;6026;48.784;9.198;2023-05-29T06:17:39;16.20;99.90
11934;DHT22;6026;48.784;9.198;2023-05-29T06:20:05;16.40;99.90
11934;DHT22;6026;48.784;9.198;2023-05-29T06:22:39;16.50;99.90
11934;DHT22;6026;48.784;9.198;2023-05-29T06:25:04;16.60;99.90
11934;DHT22;6026;48.784;9.198;2023-05-29T06:27:30;16.70;99.90
11934;DHT22;6026;48.784;9.198;2023-05-29T06:29:56;16.80;99.90
11934;DHT22;6026;48.784;9.198;2023-05-29T06:32:21;17.00;99.90
11934;DHT22;6026;48.784;9.198;2023-05-29T06:34:47;17.20;99.90
11934;DHT22;6026;48.784;9.198;2023-05-29T06:37:13;17.30;99.90
11934;DHT22;6026;48.784;9.198;2023-05-29T06:39:38;17.40;99.90
11934;DHT22;6026;48.784;9.198;2023-05-29T06:42:07;17.50;99.90
11934;DHT22;6026;48.784;9.198;2023-05-29T06:44:33;17.60;99.90
11934;DHT22;6026;48.784;9.198;2023-05-29T06:46:58;17.70;99.90
11934;DHT22;6026;48.784;9.198;2023-05-29T06:49:24;17.80;99.90
11934;DHT22;6026;48.784;9.198;2023-05-29T06:51:50;18.00;99.90
11934;DHT22;6026;48.784;9.198;2023-05-29T06:54:16;18.30;99.90
11934;DHT22;6026;48.784;9.198;2023-05-29T06:56:41;18.80;99.90
11934;DHT22;6026;48.784;9.198;2023-05-29T06:59:07;19.20;99.90
11934;DHT22;6026;48.784;9.198;2023-05-29T07:01:32;19.80;99.90
11934;DHT22;6026;48.784;9.198;2023-05-29T07:03:58;20.30;99.90
11934;DHT22;6026;48.784;9.198;2023-05-29T07:06:23;20.80;99.90
11934;DHT22;6026;48.784;9.198;2023-05-29T07:08:49;21.20;99.90
11934;DHT22;6026;48.784;9.198;2023-05-29T07:11:15;21.70;99.90
11934;DHT22;6026;48.784;9.198;2023-05-29T07:13:40;22.10;99.90
11934;DHT22;6026;48.784;9.198;2023-05-29T07:16:06;22.40;99.90
11934;DHT22;6026;48.784;9.198;2023-05-29T07:18:31;22.70;99.90
11934;DHT22;6026;48.784;9.198;2023-05-29T07:20:57;23.00;99.90
11934;DHT22;6026;48.784;9.198;2023-05-29T07:23:24;23.10;99.90
11934;DHT22;6026;48.784;9.198;2023-05-29T07:25:49;23.20;99.90
11934;DHT22;6026;48.784;9.198;2023-05-29T07:28:15;23.50;99.90
11934;DHT22;6026;48.784;9.198;2023-05-29T07:30:41;23.70;99.90
11934;DHT22;6026;48.784;9.198;2023-05-29T07:33:06;23.80;99.90
11934;DHT22;6026;48.784;9.198;2023-05-29T07:35:32;24.00;99.90
11934;DHT22;6026;48.784;9.198;2023-05-29T07:37:59;24.10;99.90
11934;DHT22;6026;48.784;9.198;2023-05-29T07:40:25;24.00;99.90
11934;DHT22;6026;48.784;9.198;2023-05-29T07:42:50;24.20;99.90
11934;DHT22;6026;48.784;9.198;2023-05-29T07:45:16;24.30;99.90
11934;DHT22;6026;48.784;9.198;2023-05-29T07:47:41;24.30;99.90
11934;DHT22;6026;48.784;9.198;2023-05-29T07:50:08;24.30;99.90
11934;DHT22;6026;48.784;9.198;2023-05-29T07:52:33;24.50;99.90
11934;DHT22;6026;48.784;9.198;2023-05-29T07:54:59;24.50;99.90
11934;DHT22;6026;48.784;9.198;2023-05-29T07:57:27;24.60;99.90
11934;DHT22;6026;48.784;9.198;2023-05-29T07:59:53;24.80;99.90
11934;DHT22;6026;48.784;9.198;2023-05-29T08:02:18;24.70;99.90
11934;DHT22;6026;48.784;9.198;2023-05-29T08:04:44;24.70;99.90
11934;DHT22;6026;48.784;9.198;2023-05-29T08:07:09;24.90;99.90
11934;DHT22;6026;48.784;9.198;2023-05-29T08:09:35;24.80;99.90
11934;DHT22;6026;48.784;9.198;2023-05-29T08:12:01;25.00;99.90
11934;DHT22;6026;48.784;9.198;2023-05-29T08:14:27;25.20;99.90
11934;DHT22;6026;48.784;9.198;2023-05-29T08:16:53;25.50;99.90
11934;DHT22;6026;48.784;9.198;2023-05-29T08:19:18;25.60;99.90
11934;DHT22;6026;48.784;9.198;2023-05-29T08:21:44;25.70;99.90
11934;DHT22;6026;48.784;9.198;2023-05-29T08:24:10;25.80;99.90
11934;DHT22;6026;48.784;9.198;2023-05-29T08:26:35;25.80;99.90
11934;DHT22;6026;48.784;9.198;2023-05-29T08:29:01;25.70;99.90
11934;DHT22;6026;48.784;9.198;2023-05-29T08:31:27;25.70;99.90
11934;DHT22;6026;48.784;9.198;2023-05-29T08:33:53;25.80;99.90
11934;DHT22;6026;48.784;9.198;2023-05-29T08:36:19;25.80;99.90
11934;DHT22;6026;48.784;9.198;2023-05-29T08:38:51;26.00;99.90
11934;DHT22;6026;48.784;9.198;2023-05-29T08:41:32;26.10;99.90
11934;DHT22;6026;48.784;9.198;2023-05-29T08:44:03;26.30;99.90
11934;DHT22;6026;48.784;9.198;2023-05-29T08:46:32;26.40;99.90
11934;DHT22;6026;48.784;9.198;2023-05-29T08:48:58;26.50;99.90
11934;DHT22;6026;48.784;9.198;2023-05-29T08:51:27;26.50;99.90
11934;DHT22;6026;48.784;9.198;2023-05-29T08:53:56;26.60;99.90
11934;DHT22;6026;48.784;9.198;2023-05-29T08:56:22;26.70;99.90
11934;DHT22;6026;48.784;9.198;2023-05-29T08:58:48;26.80;99.90
11934;DHT22;6026;48.784;9.198;2023-05-29T09:01:14;26.90;99.90
11934;DHT22;6026;48.784;9.198;2023-05-29T09:03:40;27.10;99.90
11934;DHT22;6026;48.784;9.198;2023-05-29T09:06:07;27.20;99.90
11934;DHT22;6026;48.784;9.198;2023-05-29T09:08:34;27.30;99.90
11934;DHT22;6026;48.784;9.198;2023-05-29T09:11:00;27.30;99.90
11934;DHT22;6026;48.784;9.198;2023-05-29T09:13:25;27.40;99.90
11934;DHT22;6026;48.784;9.198;2023-05-29T09:15:58;27.50;99.90
11934;DHT22;6026;48.784;9.198;2023-05-29T09:18:23;27.50;99.90
11934;DHT22;6026;48.784;9.198;2023-05-29T09:20:49;27.70;99.90
11934;DHT22;6026;48.784;9.198;2023-05-29T09:23:14;27.70;99.90
11934;DHT22;6026;48.784;9.198;2023-05-29T09:25:41;27.80;99.90
11934;DHT22;6026;48.784;9.198;2023-05-29T09:28:10;27.90;99.90
11934;DHT22;6026;48.784;9.198;2023-05-29T09:30:46;28.00;99.90
11934;DHT22;6026;48.784;9.198;2023-05-29T09:33:15;28.30;99.90
11934;DHT22;6026;48.784;9.198;2023-05-29T09:35:42;28.30;99.90
11934;DHT22;6026;48.784;9.198;2023-05-29T09:38:10;28.40;99.90
11934;DHT22;6026;48.784;9.198;2023-05-29T09:40:37;28.40;99.90
11934;DHT22;6026;48.784;9.198;2023-05-29T09:43:13;28.50;99.90
11934;DHT22;6026;48.784;9.198;2023-05-29T09:45:44;28.70;99.90
11934;DHT22;6026;48.784;9.198;2023-05-29T09:48:14;28.90;99.90
11934;DHT22;6026;48.784;9.198;2023-05-29T09:50:41;29.00;99.90
11934;DHT22;6026;48.784;9.198;2023-05-29T09:53:23;29.00;99.90
11934;DHT22;6026;48.784;9.198;2023-05-29T09:55:50;29.00;99.90
11934;DHT22;6026;48.784;9.198;2023-05-29T09:58:20;29.10;99.90
11934;DHT22;6026;48.784;9.198;2023-05-29T10:00:47;29.00;99.90
11934;DHT22;6026;48.784;9.198;2023-05-29T10:03:14;28.90;99.90
11934;DHT22;6026;48.784;9.198;2023-05-29T10:05:44;29.00;99.90
11934;DHT22;6026;48.784;9.198;2023-05-29T10:08:13;29.20;99.90
11934;DHT22;6026;48.784;9.198;2023-05-29T10:10:45;29.30;99.90
11934;DHT22;6026;48.784;9.198;2023-05-29T10:13:13;29.50;99.90
11934;DHT22;6026;48.784;9.198;2023-05-29T10:15:44;29.60;99.90
11934;DHT22;6026;48.784;9.198;2023-05-29T10:18:39;29.80;99.90
11934;DHT22;6026;48.784;9.198;2023-05-29T10:21:08;29.70;99.90
11934;DHT22;6026;48.784;9.198;2023-05-29T10:23:37;29.60;99.20
11934;DHT22;6026;48.784;9.198;2023-05-29T10:26:14;29.90;99.30
11934;DHT22;6026;48.784;9.198;2023-05-29T10:28:46;30.00;97.70
11934;DHT22;6026;48.784;9.198;2023-05-29T10:31:26;29.80;97.40
11934;DHT22;6026;48.784;9.198;2023-05-29T10:36:38;29.60;97.50
11934;DHT22;6026;48.784;9.198;2023-05-29T10:39:05;29.50;96.80
11934;DHT22;6026;48.784;9.198;2023-05-29T10:41:33;29.60;97.10
11934;DHT22;6026;48.784;9.198;2023-05-29T10:44:00;29.50;96.80
11934;DHT22;6026;48.784;9.198;2023-05-29T10:49:20;29.70;97.10
11934;DHT22;6026;48.784;9.198;2023-05-29T10:51:47;29.60;96.10
11934;DHT22;6026;48.784;9.198;2023-05-29T10:54:14;29.70;96.20
11934;DHT22;6026;48.784;9.198;2023-05-29T10:56:40;29.80;96.30
11934;DHT22;6026;48.784;9.198;2023-05-29T10:59:08;29.80;96.00
11934;DHT22;6026;48.784;9.198;2023-05-29T11:01:33;29.90;96.70
11934;DHT22;6026;48.784;9.198;2023-05-29T11:06:43;30.00;95.80
11934;DHT22;6026;48.784;9.198;2023-05-29T11:09:36;29.90;95.60
11934;DHT22;6026;48.784;9.198;2023-05-29T11:12:24;29.90;96.30
11934;DHT22;6026;48.784;9.198;2023-05-29T11:15:03;29.80;95.40
11934;DHT22;6026;48.784;9.198;2023-05-29T11:17:29;30.00;95.00
11934;DHT22;6026;48.784;9.198;2023-05-29T11:19:56;30.00;95.30
11934;DHT22;6026;48.784;9.198;2023-05-29T11:22:34;30.00;95.30
11934;DHT22;6026;48.784;9.198;2023-05-29T11:25:09;29.80;95.60
11934;DHT22;6026;48.784;9.198;2023-05-29T11:27:34;30.00;95.10
11934;DHT22;6026;48.784;9.198;2023-05-29T11:30:01;30.10;95.10
11934;DHT22;6026;48.784;9.198;2023-05-29T11:32:27;30.20;94.40
11934;DHT22;6026;48.784;9.198;2023-05-29T11:34:56;30.10;94.30
11934;DHT22;6026;48.784;9.198;2023-05-29T11:37:24;30.20;93.80
11934;DHT22;6026;48.784;9.198;2023-05-29T11:39:51;30.10;93.60
11934;DHT22;6026;48.784;9.198;2023-05-29T11:42:16;30.10;93.90
11934;DHT22;6026;48.784;9.198;2023-05-29T11:44:42;30.10;94.30
11934;DHT22;6026;48.784;9.198;2023-05-29T11:47:08;29.90;93.00
11934;DHT22;6026;48.784;9.198;2023-05-29T11:49:35;30.10;93.00
11934;DHT22;6026;48.784;9.198;2023-05-29T11:52:12;30.00;92.80
11934;DHT22;6026;48.784;9.198;2023-05-29T11:54:39;30.00;92.50
11934;DHT22;6026;48.784;9.198;2023-05-29T11:57:07;30.00;92.00
11934;DHT22;6026;48.784;9.198;2023-05-29T11:59:33;29.90;91.50
11934;DHT22;6026;48.784;9.198;2023-05-29T12:02:02;30.00;91.40
11934;DHT22;6026;48.784;9.198;2023-05-29T12:04:28;30.10;91.00
11934;DHT22;6026;48.784;9.198;2023-05-29T12:06:54;30.10;92.20
11934;DHT22;6026;48.784;9.198;2023-05-29T12:09:27;30.10;91.90
11934;DHT22;6026;48.784;9.198;2023-05-29T12:12:03;30.20;91.30
11934;DHT22;6026;48.784;9.198;2023-05-29T12:14:28;30.10;90.60
11934;DHT22;6026;48.784;9.198;2023-05-29T12:16:54;30.00;90.20
11934;DHT22;6026;48.784;9.198;2023-05-29T12:19:20;30.00;90.60
11934;DHT22;6026;48.784;9.198;2023-05-29T12:21:46;30.00;90.70
11934;DHT22;6026;48.784;9.198;2023-05-29T12:24:11;30.00;91.00
11934;DHT22;6026;48.784;9.198;2023-05-29T12:26:37;30.10;90.60
11934;DHT22;6026;48.784;9.198;2023-05-29T12:29:06;30.10;88.60
11934;DHT22;6026;48.784;9.198;2023-05-29T12:31:31;30.00;89.40
11934;DHT22;6026;48.784;9.198;2023-05-29T12:34:01;30.00;89.80
11934;DHT22;6026;48.784;9.198;2023-05-29T12:36:27;30.10;89.50
11934;DHT22;6026;48.784;9.198;2023-05-29T12:38:53;30.00;88.70
11934;DHT22;6026;48.784;9.198;2023-05-29T12:41:32;29.90;88.50
11934;DHT22;6026;48.784;9.198;2023-05-29T12:44:00;30.00;89.10
11934;DHT22;6026;48.784;9.198;2023-05-29T12:46:27;30.00;88.90
11934;DHT22;6026;48.784;9.198;2023-05-29T12:48:54;30.10;89.40
11934;DHT22;6026;48.784;9.198;2023-05-29T12:51:24;30.20;88.40
11934;DHT22;6026;48.784;9.198;2023-05-29T12:53:50;30.30;85.20
11934;DHT22;6026;48.784;9.198;2023-05-29T12:56:16;30.20;83.40
11934;DHT22;6026;48.784;9.198;2023-05-29T12:58:41;30.10;84.10
11934;DHT22;6026;48.784;9.198;2023-05-29T13:01:12;30.10;83.00
11934;DHT22;6026;48.784;9.198;2023-05-29T13:03:39;30.00;83.00
11934;DHT22;6026;48.784;9.198;2023-05-29T13:06:05;29.70;82.70
11934;DHT22;6026;48.784;9.198;2023-05-29T13:08:31;29.70;83.90
11934;DHT22;6026;48.784;9.198;2023-05-29T13:10:56;29.70;83.70
11934;DHT22;6026;48.784;9.198;2023-05-29T13:13:22;29.70;83.80
11934;DHT22;6026;48.784;9.198;2023-05-29T13:15:47;29.60;84.20
11934;DHT22;6026;48.784;9.198;2023-05-29T13:18:13;29.60;83.70
11934;DHT22;6026;48.784;9.198;2023-05-29T13:20:39;29.60;82.60
11934;DHT22;6026;48.784;9.198;2023-05-29T13:23:04;29.50;83.90
11934;DHT22;6026;48.784;9.198;2023-05-29T13:25:30;29.10;82.20
11934;DHT22;6026;48.784;9.198;2023-05-29T13:27:55;29.00;83.50
11934;DHT22;6026;48.784;9.198;2023-05-29T13:30:21;28.90;82.60
11934;DHT22;6026;48.784;9.198;2023-05-29T13:32:47;28.90;82.50
11934;DHT22;6026;48.784;9.198;2023-05-29T13:35:13;28.80;84.10
11934;DHT22;6026;48.784;9.198;2023-05-29T13:37:39;29.00;87.10
11934;DHT22;6026;48.784;9.198;2023-05-29T13:40:05;28.90;84.00
11934;DHT22;6026;48.784;9.198;2023-05-29T13:42:32;29.00;83.30
11934;DHT22;6026;48.784;9.198;2023-05-29T13:44:58;29.10;85.00
11934;DHT22;6026;48.784;9.198;2023-05-29T13:47:23;29.00;82.60
11934;DHT22;6026;48.784;9.198;2023-05-29T13:49:49;29.00;85.00
11934;DHT22;6026;48.784;9.198;2023-05-29T13:52:15;29.00;87.30
11934;DHT22;6026;48.784;9.198;2023-05-29T13:54:42;28.90;85.20
11934;DHT22;6026;48.784;9.198;2023-05-29T13:57:07;29.00;86.20
11934;DHT22;6026;48.784;9.198;2023-05-29T13:59:34;28.90;83.10
11934;DHT22;6026;48.784;9.198;2023-05-29T14:02:00;28.70;83.40
11934;DHT22;6026;48.784;9.198;2023-05-29T14:04:26;28.60;85.70
11934;DHT22;6026;48.784;9.198;2023-05-29T14:06:52;28.60;84.30
11934;DHT22;6026;48.784;9.198;2023-05-29T14:09:18;28.60;83.90
11934;DHT22;6026;48.784;9.198;2023-05-29T14:11:52;28.50;85.80
11934;DHT22;6026;48.784;9.198;2023-05-29T14:14:18;28.40;87.80
11934;DHT22;6026;48.784;9.198;2023-05-29T14:16:43;28.50;86.00
11934;DHT22;6026;48.784;9.198;2023-05-29T14:19:09;28.50;85.70
11934;DHT22;6026;48.784;9.198;2023-05-29T14:21:34;28.50;85.50
11934;DHT22;6026;48.784;9.198;2023-05-29T14:24:01;28.40;85.90
11934;DHT22;6026;48.784;9.198;2023-05-29T14:26:26;28.30;85.50
11934;DHT22;6026;48.784;9.198;2023-05-29T14:28:52;28.30;85.80
11934;DHT22;6026;48.784;9.198;2023-05-29T14:31:18;28.30;87.40
11934;DHT22;6026;48.784;9.198;2023-05-29T14:33:43;28.30;87.30
11934;DHT22;6026;48.784;9.198;2023-05-29T14:36:09;28.40;85.20
11934;DHT22;6026;48.784;9.198;2023-05-29T14:38:35;28.40;84.60
11934;DHT22;6026;48.784;9.198;2023-05-29T14:41:01;28.40;87.80
11934;DHT22;6026;48.784;9.198;2023-05-29T14:43:27;28.40;86.20
11934;DHT22;6026;48.784;9.198;2023-05-29T14:45:53;28.40;87.10
11934;DHT22;6026;48.784;9.198;2023-05-29T14:48:18;28.40;86.00
11934;DHT22;6026;48.784;9.198;2023-05-29T14:50:44;28.40;87.70
11934;DHT22;6026;48.784;9.198;2023-05-29T14:53:09;28.40;87.00
11934;DHT22;6026;48.784;9.198;2023-05-29T14:55:35;28.20;84.00
11934;DHT22;6026;48.784;9.198;2023-05-29T14:58:04;28.00;85.00
11934;DHT22;6026;48.784;9.198;2023-05-29T15:00:30;27.80;85.50
11934;DHT22;6026;48.784;9.198;2023-05-29T15:02:56;27.90;85.90
11934;DHT22;6026;48.784;9.198;2023-05-29T15:05:28;27.80;86.80
11934;DHT22;6026;48.784;9.198;2023-05-29T15:07:54;27.90;88.60
11934;DHT22;6026;48.784;9.198;2023-05-29T15:10:26;27.90;89.10
11934;DHT22;6026;48.784;9.198;2023-05-29T15:12:52;27.90;88.70
11934;DHT22;6026;48.784;9.198;2023-05-29T15:15:23;27.80;88.30
11934;DHT22;6026;48.784;9.198;2023-05-29T15:17:49;27.70;88.50
11934;DHT22;6026;48.784;9.198;2023-05-29T15:20:19;27.70;90.10
11934;DHT22;6026;48.784;9.198;2023-05-29T15:22:45;27.60;91.40
11934;DHT22;6026;48.784;9.198;2023-05-29T15:25:11;27.70;90.40
11934;DHT22;6026;48.784;9.198;2023-05-29T15:27:36;27.60;89.50
11934;DHT22;6026;48.784;9.198;2023-05-29T15:30:13;27.40;89.50
11934;DHT22;6026;48.784;9.198;2023-05-29T15:32:40;27.30;90.00
11934;DHT22;6026;48.784;9.198;2023-05-29T15:35:07;27.30;89.90
11934;DHT22;6026;48.784;9.198;2023-05-29T15:37:33;27.30;90.00
11934;DHT22;6026;48.784;9.198;2023-05-29T15:40:00;27.20;90.40
11934;DHT22;6026;48.784;9.198;2023-05-29T15:42:26;27.20;90.50
11934;DHT22;6026;48.784;9.198;2023-05-29T15:44:51;27.20;91.10
11934;DHT22;6026;48.784;9.198;2023-05-29T15:47:17;27.20;90.40
11934;DHT22;6026;48.784;9.198;2023-05-29T15:49:43;27.20;90.50
11934;DHT22;6026;48.784;9.198;2023-05-29T15:52:08;27.10;90.20
11934;DHT22;6026;48.784;9.198;2023-05-29T15:54:34;27.00;90.60
11934;DHT22;6026;48.784;9.198;2023-05-29T15:56:59;26.90;90.60